Westminster, California
Current Conditions -  °F | °C
As of 9:58 AM on Thursday 27 Nov 2014 (Local Time) from KSLI Reporting Station
Clear Clear  
Wind Chill: 24°   Ceiling: Unl
Heat Index: 24°   Visibility: 10mi
Dew Point:   Wind: 2mph
Humidity: 24%   Direction: 140°SE
Pressure: 30.1"   Gusts: NA
Location:  33.76°N, 117.98°W
Report Text: KSLI 271758Z AUTO 14002KT 10SM CLR 24/02 A3010 RMK AO2 SLP196 T02380023 10238 20086 50003
Loading
Personal Weather Stations






























Interactive Weather Map New forecast layout! Learn more

10-Day Weather Forecast

Advertisements
Track Severe Weather on mobile